sensor_id;sensor_type;location;lat;lon;timestamp;P1;durP1;ratioP1;P2;durP2;ratioP2
52180;SDS011;38158;53.338;6.514;2022-07-23T00:01:20;7.07;;;4.18;;
52180;SDS011;38158;53.338;6.514;2022-07-23T00:03:46;8.35;;;3.78;;
52180;SDS011;38158;53.338;6.514;2022-07-23T00:06:12;6.70;;;3.90;;
52180;SDS011;38158;53.338;6.514;2022-07-23T00:08:38;10.20;;;3.97;;
52180;SDS011;38158;53.338;6.514;2022-07-23T00:11:04;7.93;;;3.80;;
52180;SDS011;38158;53.338;6.514;2022-07-23T00:13:30;7.55;;;3.65;;
52180;SDS011;38158;53.338;6.514;2022-07-23T00:15:55;7.75;;;3.85;;
52180;SDS011;38158;53.338;6.514;2022-07-23T00:18:21;8.35;;;4.35;;
52180;SDS011;38158;53.338;6.514;2022-07-23T00:20:47;8.85;;;3.67;;
52180;SDS011;38158;53.338;6.514;2022-07-23T00:23:13;10.48;;;3.75;;
52180;SDS011;38158;53.338;6.514;2022-07-23T00:25:39;7.43;;;3.75;;
52180;SDS011;38158;53.338;6.514;2022-07-23T00:28:05;8.13;;;4.20;;
52180;SDS011;38158;53.338;6.514;2022-07-23T00:30:31;10.20;;;4.20;;
52180;SDS011;38158;53.338;6.514;2022-07-23T00:33:01;6.55;;;3.60;;
52180;SDS011;38158;53.338;6.514;2022-07-23T00:35:29;8.30;;;4.03;;
52180;SDS011;38158;53.338;6.514;2022-07-23T00:37:58;6.97;;;3.40;;
52180;SDS011;38158;53.338;6.514;2022-07-23T00:40:25;8.68;;;3.50;;
52180;SDS011;38158;53.338;6.514;2022-07-23T00:42:51;6.43;;;3.58;;
52180;SDS011;38158;53.338;6.514;2022-07-23T00:45:17;6.40;;;3.10;;
52180;SDS011;38158;53.338;6.514;2022-07-23T00:47:43;6.32;;;3.30;;
52180;SDS011;38158;53.338;6.514;2022-07-23T00:50:09;10.50;;;3.90;;
52180;SDS011;38158;53.338;6.514;2022-07-23T00:52:36;8.05;;;3.80;;
52180;SDS011;38158;53.338;6.514;2022-07-23T00:55:04;10.43;;;4.10;;
52180;SDS011;38158;53.338;6.514;2022-07-23T00:57:30;8.40;;;4.30;;
52180;SDS011;38158;53.338;6.514;2022-07-23T00:59:56;8.48;;;3.95;;
52180;SDS011;38158;53.338;6.514;2022-07-23T01:02:23;13.05;;;4.20;;
52180;SDS011;38158;53.338;6.514;2022-07-23T01:04:49;9.32;;;4.22;;
52180;SDS011;38158;53.338;6.514;2022-07-23T01:07:16;15.77;;;3.92;;
52180;SDS011;38158;53.338;6.514;2022-07-23T01:09:42;8.82;;;3.78;;
52180;SDS011;38158;53.338;6.514;2022-07-23T01:12:09;16.85;;;4.07;;
52180;SDS011;38158;53.338;6.514;2022-07-23T01:14:34;12.95;;;3.72;;
52180;SDS011;38158;53.338;6.514;2022-07-23T01:17:00;9.38;;;3.67;;
52180;SDS011;38158;53.338;6.514;2022-07-23T01:19:25;7.40;;;3.80;;
52180;SDS011;38158;53.338;6.514;2022-07-23T01:21:51;9.27;;;3.92;;
52180;SDS011;38158;53.338;6.514;2022-07-23T01:24:19;8.82;;;3.80;;
52180;SDS011;38158;53.338;6.514;2022-07-23T01:26:45;7.80;;;3.80;;
52180;SDS011;38158;53.338;6.514;2022-07-23T01:29:13;6.40;;;3.28;;
52180;SDS011;38158;53.338;6.514;2022-07-23T01:31:39;8.25;;;3.83;;
52180;SDS011;38158;53.338;6.514;2022-07-23T01:34:05;8.55;;;4.20;;
52180;SDS011;38158;53.338;6.514;2022-07-23T01:36:32;9.75;;;3.63;;
52180;SDS011;38158;53.338;6.514;2022-07-23T01:38:58;7.63;;;3.92;;
52180;SDS011;38158;53.338;6.514;2022-07-23T01:41:24;8.48;;;4.03;;
52180;SDS011;38158;53.338;6.514;2022-07-23T01:43:49;10.13;;;4.38;;
52180;SDS011;38158;53.338;6.514;2022-07-23T01:46:15;7.72;;;3.92;;
52180;SDS011;38158;53.338;6.514;2022-07-23T01:48:41;9.13;;;4.07;;
52180;SDS011;38158;53.338;6.514;2022-07-23T01:51:07;7.45;;;4.07;;
52180;SDS011;38158;53.338;6.514;2022-07-23T01:53:32;8.57;;;4.35;;
52180;SDS011;38158;53.338;6.514;2022-07-23T01:55:58;7.55;;;4.50;;
52180;SDS011;38158;53.338;6.514;2022-07-23T01:58:25;10.32;;;4.55;;
52180;SDS011;38158;53.338;6.514;2022-07-23T02:00:51;10.00;;;4.27;;
52180;SDS011;38158;53.338;6.514;2022-07-23T02:03:17;7.45;;;4.50;;
52180;SDS011;38158;53.338;6.514;2022-07-23T02:05:43;8.77;;;4.35;;
52180;SDS011;38158;53.338;6.514;2022-07-23T02:08:09;8.50;;;4.40;;
52180;SDS011;38158;53.338;6.514;2022-07-23T02:10:34;8.52;;;4.22;;
52180;SDS011;38158;53.338;6.514;2022-07-23T02:13:00;9.25;;;4.68;;
52180;SDS011;38158;53.338;6.514;2022-07-23T02:15:26;12.82;;;5.05;;
52180;SDS011;38158;53.338;6.514;2022-07-23T02:17:51;8.45;;;4.97;;
52180;SDS011;38158;53.338;6.514;2022-07-23T02:20:17;8.88;;;4.65;;
52180;SDS011;38158;53.338;6.514;2022-07-23T02:22:43;8.75;;;4.57;;
52180;SDS011;38158;53.338;6.514;2022-07-23T02:25:09;12.93;;;5.05;;
52180;SDS011;38158;53.338;6.514;2022-07-23T02:27:35;12.48;;;4.68;;
52180;SDS011;38158;53.338;6.514;2022-07-23T02:30:01;11.60;;;5.13;;
52180;SDS011;38158;53.338;6.514;2022-07-23T02:32:27;8.25;;;4.53;;
52180;SDS011;38158;53.338;6.514;2022-07-23T02:34:53;11.38;;;5.25;;
52180;SDS011;38158;53.338;6.514;2022-07-23T02:37:19;10.75;;;4.25;;
52180;SDS011;38158;53.338;6.514;2022-07-23T02:39:44;9.05;;;4.55;;
52180;SDS011;38158;53.338;6.514;2022-07-23T02:42:10;7.80;;;4.63;;
52180;SDS011;38158;53.338;6.514;2022-07-23T02:44:36;7.75;;;4.50;;
52180;SDS011;38158;53.338;6.514;2022-07-23T02:47:01;8.15;;;4.45;;
52180;SDS011;38158;53.338;6.514;2022-07-23T02:49:27;6.45;;;4.18;;
52180;SDS011;38158;53.338;6.514;2022-07-23T02:51:53;7.00;;;3.97;;
52180;SDS011;38158;53.338;6.514;2022-07-23T02:54:19;7.90;;;4.20;;
52180;SDS011;38158;53.338;6.514;2022-07-23T02:56:45;8.10;;;4.65;;
52180;SDS011;38158;53.338;6.514;2022-07-23T02:59:11;11.80;;;4.47;;
52180;SDS011;38158;53.338;6.514;2022-07-23T03:01:37;9.48;;;4.70;;
52180;SDS011;38158;53.338;6.514;2022-07-23T03:04:02;7.05;;;4.10;;
52180;SDS011;38158;53.338;6.514;2022-07-23T03:06:28;8.98;;;4.65;;
52180;SDS011;38158;53.338;6.514;2022-07-23T03:08:54;9.85;;;4.85;;
52180;SDS011;38158;53.338;6.514;2022-07-23T03:11:19;8.93;;;4.70;;
52180;SDS011;38158;53.338;6.514;2022-07-23T03:13:45;10.95;;;5.38;;
52180;SDS011;38158;53.338;6.514;2022-07-23T03:16:11;7.93;;;3.70;;
52180;SDS011;38158;53.338;6.514;2022-07-23T03:18:37;7.47;;;4.50;;
52180;SDS011;38158;53.338;6.514;2022-07-23T03:21:02;8.95;;;4.03;;
52180;SDS011;38158;53.338;6.514;2022-07-23T03:23:28;12.02;;;4.45;;
52180;SDS011;38158;53.338;6.514;2022-07-23T03:25:54;7.05;;;4.00;;
52180;SDS011;38158;53.338;6.514;2022-07-23T03:28:20;9.07;;;3.83;;
52180;SDS011;38158;53.338;6.514;2022-07-23T03:30:46;7.57;;;4.20;;
52180;SDS011;38158;53.338;6.514;2022-07-23T03:33:15;9.55;;;4.60;;
52180;SDS011;38158;53.338;6.514;2022-07-23T03:35:45;10.70;;;4.38;;
52180;SDS011;38158;53.338;6.514;2022-07-23T03:38:12;10.23;;;4.85;;
52180;SDS011;38158;53.338;6.514;2022-07-23T03:40:38;14.32;;;4.68;;
52180;SDS011;38158;53.338;6.514;2022-07-23T03:43:03;7.43;;;4.20;;
52180;SDS011;38158;53.338;6.514;2022-07-23T03:45:30;8.40;;;4.40;;
52180;SDS011;38158;53.338;6.514;2022-07-23T03:47:56;8.70;;;4.40;;
52180;SDS011;38158;53.338;6.514;2022-07-23T03:50:21;8.30;;;3.88;;
52180;SDS011;38158;53.338;6.514;2022-07-23T03:52:47;7.25;;;4.40;;
52180;SDS011;38158;53.338;6.514;2022-07-23T03:55:13;7.88;;;4.93;;
52180;SDS011;38158;53.338;6.514;2022-07-23T03:57:39;6.97;;;4.03;;
52180;SDS011;38158;53.338;6.514;2022-07-23T04:00:06;7.82;;;3.95;;
52180;SDS011;38158;53.338;6.514;2022-07-23T04:02:34;7.97;;;4.30;;
52180;SDS011;38158;53.338;6.514;2022-07-23T04:05:00;9.68;;;4.43;;
52180;SDS011;38158;53.338;6.514;2022-07-23T04:07:26;9.20;;;3.97;;
52180;SDS011;38158;53.338;6.514;2022-07-23T04:09:51;11.63;;;4.75;;
52180;SDS011;38158;53.338;6.514;2022-07-23T04:12:17;15.52;;;4.45;;
52180;SDS011;38158;53.338;6.514;2022-07-23T04:14:43;6.82;;;4.50;;
52180;SDS011;38158;53.338;6.514;2022-07-23T04:17:09;9.50;;;4.40;;
52180;SDS011;38158;53.338;6.514;2022-07-23T04:19:34;8.05;;;4.43;;
52180;SDS011;38158;53.338;6.514;2022-07-23T04:22:05;10.88;;;4.45;;
52180;SDS011;38158;53.338;6.514;2022-07-23T04:24:34;11.13;;;4.80;;
52180;SDS011;38158;53.338;6.514;2022-07-23T04:27:00;9.38;;;4.25;;
52180;SDS011;38158;53.338;6.514;2022-07-23T04:29:26;8.35;;;4.40;;
52180;SDS011;38158;53.338;6.514;2022-07-23T04:31:51;7.45;;;4.43;;
52180;SDS011;38158;53.338;6.514;2022-07-23T04:34:17;7.50;;;4.15;;
52180;SDS011;38158;53.338;6.514;2022-07-23T04:36:43;9.30;;;4.53;;
52180;SDS011;38158;53.338;6.514;2022-07-23T04:39:08;7.97;;;4.40;;
52180;SDS011;38158;53.338;6.514;2022-07-23T04:41:34;9.40;;;4.10;;
52180;SDS011;38158;53.338;6.514;2022-07-23T04:44:00;9.32;;;4.22;;
52180;SDS011;38158;53.338;6.514;2022-07-23T04:46:26;8.57;;;4.85;;
52180;SDS011;38158;53.338;6.514;2022-07-23T04:48:53;7.90;;;4.38;;
52180;SDS011;38158;53.338;6.514;2022-07-23T04:51:19;8.35;;;4.38;;
52180;SDS011;38158;53.338;6.514;2022-07-23T04:53:44;7.07;;;4.38;;
52180;SDS011;38158;53.338;6.514;2022-07-23T04:56:10;8.52;;;4.55;;
52180;SDS011;38158;53.338;6.514;2022-07-23T04:58:36;6.97;;;4.15;;
52180;SDS011;38158;53.338;6.514;2022-07-23T05:01:01;6.75;;;4.13;;
52180;SDS011;38158;53.338;6.514;2022-07-23T05:03:27;7.13;;;4.22;;
52180;SDS011;38158;53.338;6.514;2022-07-23T05:05:53;7.53;;;4.05;;
52180;SDS011;38158;53.338;6.514;2022-07-23T05:08:19;7.13;;;3.70;;
52180;SDS011;38158;53.338;6.514;2022-07-23T05:10:45;6.60;;;4.20;;
52180;SDS011;38158;53.338;6.514;2022-07-23T05:13:11;8.45;;;3.70;;
52180;SDS011;38158;53.338;6.514;2022-07-23T05:15:36;8.57;;;4.00;;
52180;SDS011;38158;53.338;6.514;2022-07-23T05:18:02;10.73;;;3.70;;
52180;SDS011;38158;53.338;6.514;2022-07-23T05:20:28;9.35;;;4.38;;
52180;SDS011;38158;53.338;6.514;2022-07-23T05:22:53;6.85;;;4.13;;
52180;SDS011;38158;53.338;6.514;2022-07-23T05:25:19;11.68;;;4.70;;
52180;SDS011;38158;53.338;6.514;2022-07-23T05:27:45;6.43;;;3.95;;
52180;SDS011;38158;53.338;6.514;2022-07-23T05:30:11;7.30;;;4.35;;
52180;SDS011;38158;53.338;6.514;2022-07-23T05:32:37;10.73;;;4.65;;
52180;SDS011;38158;53.338;6.514;2022-07-23T05:35:03;7.63;;;4.25;;
52180;SDS011;38158;53.338;6.514;2022-07-23T05:37:30;8.65;;;4.50;;
52180;SDS011;38158;53.338;6.514;2022-07-23T05:39:59;8.23;;;4.07;;
52180;SDS011;38158;53.338;6.514;2022-07-23T05:42:31;9.90;;;4.63;;
52180;SDS011;38158;53.338;6.514;2022-07-23T05:44:57;12.35;;;4.30;;
52180;SDS011;38158;53.338;6.514;2022-07-23T05:47:22;6.55;;;3.70;;
52180;SDS011;38158;53.338;6.514;2022-07-23T05:49:48;10.27;;;4.45;;
52180;SDS011;38158;53.338;6.514;2022-07-23T05:52:14;7.75;;;3.90;;
52180;SDS011;38158;53.338;6.514;2022-07-23T05:54:40;7.78;;;3.92;;
52180;SDS011;38158;53.338;6.514;2022-07-23T05:57:05;7.40;;;4.00;;
52180;SDS011;38158;53.338;6.514;2022-07-23T05:59:31;8.10;;;4.07;;
52180;SDS011;38158;53.338;6.514;2022-07-23T06:01:57;7.13;;;4.13;;
52180;SDS011;38158;53.338;6.514;2022-07-23T06:04:22;6.50;;;3.83;;
52180;SDS011;38158;53.338;6.514;2022-07-23T06:06:48;8.52;;;3.92;;
52180;SDS011;38158;53.338;6.514;2022-07-23T06:09:14;9.02;;;3.80;;
52180;SDS011;38158;53.338;6.514;2022-07-23T06:11:40;8.85;;;4.30;;
52180;SDS011;38158;53.338;6.514;2022-07-23T06:14:05;12.18;;;6.13;;
52180;SDS011;38158;53.338;6.514;2022-07-23T06:16:31;9.48;;;4.40;;
52180;SDS011;38158;53.338;6.514;2022-07-23T06:18:57;5.45;;;3.55;;
52180;SDS011;38158;53.338;6.514;2022-07-23T06:21:23;5.75;;;3.30;;
52180;SDS011;38158;53.338;6.514;2022-07-23T06:23:48;6.72;;;2.92;;
52180;SDS011;38158;53.338;6.514;2022-07-23T06:26:14;6.93;;;2.97;;
52180;SDS011;38158;53.338;6.514;2022-07-23T06:28:40;6.57;;;2.75;;
52180;SDS011;38158;53.338;6.514;2022-07-23T06:31:06;4.63;;;1.73;;
52180;SDS011;38158;53.338;6.514;2022-07-23T06:33:32;5.78;;;2.05;;
52180;SDS011;38158;53.338;6.514;2022-07-23T06:35:58;4.95;;;1.88;;
52180;SDS011;38158;53.338;6.514;2022-07-23T06:38:24;7.13;;;2.92;;
52180;SDS011;38158;53.338;6.514;2022-07-23T06:40:50;3.80;;;1.80;;
52180;SDS011;38158;53.338;6.514;2022-07-23T06:43:16;5.45;;;1.73;;
52180;SDS011;38158;53.338;6.514;2022-07-23T06:45:42;2.70;;;0.90;;
52180;SDS011;38158;53.338;6.514;2022-07-23T06:48:07;2.97;;;1.00;;
52180;SDS011;38158;53.338;6.514;2022-07-23T06:50:33;3.88;;;0.90;;
52180;SDS011;38158;53.338;6.514;2022-07-23T06:52:59;2.83;;;0.70;;
52180;SDS011;38158;53.338;6.514;2022-07-23T06:55:25;3.53;;;0.70;;
52180;SDS011;38158;53.338;6.514;2022-07-23T06:57:51;2.42;;;0.80;;
52180;SDS011;38158;53.338;6.514;2022-07-23T07:00:16;2.75;;;0.60;;
52180;SDS011;38158;53.338;6.514;2022-07-23T07:02:42;1.55;;;0.47;;
52180;SDS011;38158;53.338;6.514;2022-07-23T07:05:08;0.75;;;0.35;;
52180;SDS011;38158;53.338;6.514;2022-07-23T07:07:34;1.90;;;0.30;;
52180;SDS011;38158;53.338;6.514;2022-07-23T07:10:00;3.05;;;0.35;;
52180;SDS011;38158;53.338;6.514;2022-07-23T07:12:27;1.00;;;0.22;;
52180;SDS011;38158;53.338;6.514;2022-07-23T07:14:53;1.80;;;0.32;;
52180;SDS011;38158;53.338;6.514;2022-07-23T07:17:18;5.43;;;0.85;;
52180;SDS011;38158;53.338;6.514;2022-07-23T07:19:44;2.50;;;0.40;;
52180;SDS011;38158;53.338;6.514;2022-07-23T07:22:10;2.65;;;0.40;;
52180;SDS011;38158;53.338;6.514;2022-07-23T07:24:35;0.50;;;0.20;;
52180;SDS011;38158;53.338;6.514;2022-07-23T07:27:01;3.10;;;0.40;;
52180;SDS011;38158;53.338;6.514;2022-07-23T07:29:27;2.05;;;0.32;;
52180;SDS011;38158;53.338;6.514;2022-07-23T07:31:53;1.73;;;0.25;;
52180;SDS011;38158;53.338;6.514;2022-07-23T07:34:19;2.83;;;0.40;;
52180;SDS011;38158;53.338;6.514;2022-07-23T07:36:45;2.03;;;0.30;;
52180;SDS011;38158;53.338;6.514;2022-07-23T07:39:11;2.13;;;0.22;;
52180;SDS011;38158;53.338;6.514;2022-07-23T07:41:36;1.80;;;0.30;;
52180;SDS011;38158;53.338;6.514;2022-07-23T07:44:02;3.95;;;0.30;;
52180;SDS011;38158;53.338;6.514;2022-07-23T07:46:28;2.10;;;0.40;;
52180;SDS011;38158;53.338;6.514;2022-07-23T07:48:53;1.02;;;0.40;;
52180;SDS011;38158;53.338;6.514;2022-07-23T07:51:19;2.03;;;0.32;;
52180;SDS011;38158;53.338;6.514;2022-07-23T07:53:45;4.55;;;0.63;;
52180;SDS011;38158;53.338;6.514;2022-07-23T07:56:11;1.17;;;0.40;;
52180;SDS011;38158;53.338;6.514;2022-07-23T07:58:36;2.30;;;0.52;;
52180;SDS011;38158;53.338;6.514;2022-07-23T08:01:02;2.13;;;0.40;;
52180;SDS011;38158;53.338;6.514;2022-07-23T08:03:28;5.28;;;0.45;;
52180;SDS011;38158;53.338;6.514;2022-07-23T08:05:54;0.95;;;0.28;;
52180;SDS011;38158;53.338;6.514;2022-07-23T08:08:20;2.83;;;0.40;;
52180;SDS011;38158;53.338;6.514;2022-07-23T08:10:46;3.85;;;0.38;;
52180;SDS011;38158;53.338;6.514;2022-07-23T08:13:12;6.70;;;0.47;;
52180;SDS011;38158;53.338;6.514;2022-07-23T08:15:39;4.35;;;0.40;;
52180;SDS011;38158;53.338;6.514;2022-07-23T08:18:05;2.20;;;0.50;;
52180;SDS011;38158;53.338;6.514;2022-07-23T08:20:31;4.50;;;0.60;;
52180;SDS011;38158;53.338;6.514;2022-07-23T08:23:03;1.30;;;0.35;;
52180;SDS011;38158;53.338;6.514;2022-07-23T08:25:51;1.38;;;0.30;;
52180;SDS011;38158;53.338;6.514;2022-07-23T08:28:15;0.82;;;0.28;;
52180;SDS011;38158;53.338;6.514;2022-07-23T08:30:42;2.35;;;0.30;;
52180;SDS011;38158;53.338;6.514;2022-07-23T08:33:09;2.28;;;0.30;;
52180;SDS011;38158;53.338;6.514;2022-07-23T08:35:39;0.65;;;0.28;;
52180;SDS011;38158;53.338;6.514;2022-07-23T08:38:11;1.30;;;0.20;;
52180;SDS011;38158;53.338;6.514;2022-07-23T08:40:40;0.68;;;0.20;;
52180;SDS011;38158;53.338;6.514;2022-07-23T08:43:08;1.90;;;0.40;;
52180;SDS011;38158;53.338;6.514;2022-07-23T08:45:39;3.35;;;0.85;;
52180;SDS011;38158;53.338;6.514;2022-07-23T08:48:16;1.45;;;0.30;;
52180;SDS011;38158;53.338;6.514;2022-07-23T08:50:44;1.42;;;0.30;;
52180;SDS011;38158;53.338;6.514;2022-07-23T08:53:12;5.80;;;0.60;;
52180;SDS011;38158;53.338;6.514;2022-07-23T08:55:38;2.10;;;0.38;;
52180;SDS011;38158;53.338;6.514;2022-07-23T08:58:03;1.83;;;0.30;;
52180;SDS011;38158;53.338;6.514;2022-07-23T09:00:30;3.83;;;0.57;;
52180;SDS011;38158;53.338;6.514;2022-07-23T09:05:22;2.20;;;0.30;;
52180;SDS011;38158;53.338;6.514;2022-07-23T09:10:46;2.50;;;0.50;;
52180;SDS011;38158;53.338;6.514;2022-07-23T09:13:25;2.55;;;0.40;;
52180;SDS011;38158;53.338;6.514;2022-07-23T09:15:54;4.88;;;0.60;;
52180;SDS011;38158;53.338;6.514;2022-07-23T09:18:32;1.40;;;0.30;;
52180;SDS011;38158;53.338;6.514;2022-07-23T09:21:16;3.97;;;0.50;;
52180;SDS011;38158;53.338;6.514;2022-07-23T09:23:43;4.45;;;0.40;;
52180;SDS011;38158;53.338;6.514;2022-07-23T09:26:23;0.65;;;0.35;;
52180;SDS011;38158;53.338;6.514;2022-07-23T09:29:17;1.60;;;0.38;;
52180;SDS011;38158;53.338;6.514;2022-07-23T09:31:55;2.25;;;0.60;;
52180;SDS011;38158;53.338;6.514;2022-07-23T09:34:26;3.95;;;0.57;;
52180;SDS011;38158;53.338;6.514;2022-07-23T09:39:39;4.43;;;0.32;;
52180;SDS011;38158;53.338;6.514;2022-07-23T09:44:43;2.75;;;0.55;;
52180;SDS011;38158;53.338;6.514;2022-07-23T09:47:10;1.80;;;0.32;;
52180;SDS011;38158;53.338;6.514;2022-07-23T09:49:36;2.20;;;0.50;;
52180;SDS011;38158;53.338;6.514;2022-07-23T09:52:02;1.65;;;0.30;;
52180;SDS011;38158;53.338;6.514;2022-07-23T09:57:06;3.53;;;0.70;;
52180;SDS011;38158;53.338;6.514;2022-07-23T09:59:37;3.97;;;0.68;;
52180;SDS011;38158;53.338;6.514;2022-07-23T10:02:04;7.20;;;0.60;;
52180;SDS011;38158;53.338;6.514;2022-07-23T10:04:31;2.95;;;0.60;;
52180;SDS011;38158;53.338;6.514;2022-07-23T10:07:02;1.92;;;0.60;;
52180;SDS011;38158;53.338;6.514;2022-07-23T10:09:33;7.07;;;3.30;;
52180;SDS011;38158;53.338;6.514;2022-07-23T10:12:02;1.75;;;0.50;;
52180;SDS011;38158;53.338;6.514;2022-07-23T10:14:32;4.88;;;1.13;;
52180;SDS011;38158;53.338;6.514;2022-07-23T10:17:00;4.53;;;0.35;;
52180;SDS011;38158;53.338;6.514;2022-07-23T10:19:29;1.40;;;0.40;;
52180;SDS011;38158;53.338;6.514;2022-07-23T10:22:42;6.20;;;0.43;;
52180;SDS011;38158;53.338;6.514;2022-07-23T10:25:00;3.22;;;0.60;;
52180;SDS011;38158;53.338;6.514;2022-07-23T10:36:20;2.95;;;0.50;;
52180;SDS011;38158;53.338;6.514;2022-07-23T10:38:58;4.78;;;0.65;;
52180;SDS011;38158;53.338;6.514;2022-07-23T10:41:31;3.83;;;0.63;;
52180;SDS011;38158;53.338;6.514;2022-07-23T10:44:18;3.28;;;0.63;;
52180;SDS011;38158;53.338;6.514;2022-07-23T10:46:58;2.50;;;0.77;;
52180;SDS011;38158;53.338;6.514;2022-07-23T10:49:47;4.15;;;0.82;;
52180;SDS011;38158;53.338;6.514;2022-07-23T10:54:42;3.60;;;0.57;;
52180;SDS011;38158;53.338;6.514;2022-07-23T10:57:11;1.38;;;0.65;;
52180;SDS011;38158;53.338;6.514;2022-07-23T11:02:32;1.65;;;0.50;;
52180;SDS011;38158;53.338;6.514;2022-07-23T11:04:59;5.47;;;1.00;;
52180;SDS011;38158;53.338;6.514;2022-07-23T11:07:26;4.88;;;0.70;;
52180;SDS011;38158;53.338;6.514;2022-07-23T11:09:53;2.23;;;0.80;;
52180;SDS011;38158;53.338;6.514;2022-07-23T11:22:45;4.28;;;0.80;;
52180;SDS011;38158;53.338;6.514;2022-07-23T11:27:54;3.55;;;0.40;;
52180;SDS011;38158;53.338;6.514;2022-07-23T11:35:34;6.50;;;0.98;;
52180;SDS011;38158;53.338;6.514;2022-07-23T11:40:38;2.35;;;0.65;;
52180;SDS011;38158;53.338;6.514;2022-07-23T11:43:06;2.17;;;0.50;;
52180;SDS011;38158;53.338;6.514;2022-07-23T11:45:34;2.15;;;0.50;;
52180;SDS011;38158;53.338;6.514;2022-07-23T11:48:03;2.33;;;0.77;;
52180;SDS011;38158;53.338;6.514;2022-07-23T11:50:30;8.05;;;0.63;;
52180;SDS011;38158;53.338;6.514;2022-07-23T11:52:56;1.40;;;0.30;;
52180;SDS011;38158;53.338;6.514;2022-07-23T11:55:22;4.53;;;0.73;;
52180;SDS011;38158;53.338;6.514;2022-07-23T11:57:47;3.25;;;0.70;;
52180;SDS011;38158;53.338;6.514;2022-07-23T12:00:27;4.40;;;0.65;;
52180;SDS011;38158;53.338;6.514;2022-07-23T12:02:55;3.95;;;1.20;;
52180;SDS011;38158;53.338;6.514;2022-07-23T12:05:30;3.28;;;0.60;;
52180;SDS011;38158;53.338;6.514;2022-07-23T12:07:58;2.35;;;0.40;;
52180;SDS011;38158;53.338;6.514;2022-07-23T12:10:29;5.10;;;0.50;;
52180;SDS011;38158;53.338;6.514;2022-07-23T12:13:06;3.42;;;0.50;;
52180;SDS011;38158;53.338;6.514;2022-07-23T12:15:44;1.42;;;0.50;;
52180;SDS011;38158;53.338;6.514;2022-07-23T12:18:12;1.73;;;0.50;;
52180;SDS011;38158;53.338;6.514;2022-07-23T12:20:42;2.70;;;0.68;;
52180;SDS011;38158;53.338;6.514;2022-07-23T12:23:10;2.70;;;0.80;;
52180;SDS011;38158;53.338;6.514;2022-07-23T12:25:38;2.85;;;0.77;;
52180;SDS011;38158;53.338;6.514;2022-07-23T12:28:12;1.95;;;0.50;;
52180;SDS011;38158;53.338;6.514;2022-07-23T12:30:41;6.03;;;0.50;;
52180;SDS011;38158;53.338;6.514;2022-07-23T12:33:09;2.05;;;0.50;;
52180;SDS011;38158;53.338;6.514;2022-07-23T12:35:40;5.22;;;1.65;;
52180;SDS011;38158;53.338;6.514;2022-07-23T12:38:11;3.08;;;0.50;;
52180;SDS011;38158;53.338;6.514;2022-07-23T12:40:43;2.20;;;0.40;;
52180;SDS011;38158;53.338;6.514;2022-07-23T12:43:21;2.80;;;1.00;;
52180;SDS011;38158;53.338;6.514;2022-07-23T12:46:05;4.00;;;0.60;;
52180;SDS011;38158;53.338;6.514;2022-07-23T12:51:17;4.55;;;0.95;;
52180;SDS011;38158;53.338;6.514;2022-07-23T12:53:46;6.38;;;1.35;;
52180;SDS011;38158;53.338;6.514;2022-07-23T12:56:14;2.10;;;0.63;;
52180;SDS011;38158;53.338;6.514;2022-07-23T13:03:54;1.70;;;0.75;;
52180;SDS011;38158;53.338;6.514;2022-07-23T13:06:23;2.20;;;0.57;;
52180;SDS011;38158;53.338;6.514;2022-07-23T13:08:49;2.95;;;0.98;;
52180;SDS011;38158;53.338;6.514;2022-07-23T13:11:15;2.35;;;0.52;;
52180;SDS011;38158;53.338;6.514;2022-07-23T13:13:41;2.00;;;0.60;;
52180;SDS011;38158;53.338;6.514;2022-07-23T13:16:06;2.75;;;0.65;;
52180;SDS011;38158;53.338;6.514;2022-07-23T13:18:32;4.47;;;0.60;;
52180;SDS011;38158;53.338;6.514;2022-07-23T13:20:58;1.42;;;0.40;;
52180;SDS011;38158;53.338;6.514;2022-07-23T13:23:25;2.90;;;0.67;;
52180;SDS011;38158;53.338;6.514;2022-07-23T13:25:51;1.42;;;0.50;;
52180;SDS011;38158;53.338;6.514;2022-07-23T13:28:18;2.70;;;0.60;;
52180;SDS011;38158;53.338;6.514;2022-07-23T13:30:45;1.92;;;0.60;;
52180;SDS011;38158;53.338;6.514;2022-07-23T13:33:12;3.35;;;0.70;;
52180;SDS011;38158;53.338;6.514;2022-07-23T13:35:38;3.00;;;0.95;;
52180;SDS011;38158;53.338;6.514;2022-07-23T13:38:04;4.03;;;0.60;;
52180;SDS011;38158;53.338;6.514;2022-07-23T13:40:33;3.95;;;0.60;;
52180;SDS011;38158;53.338;6.514;2022-07-23T13:43:09;1.50;;;0.70;;
52180;SDS011;38158;53.338;6.514;2022-07-23T13:45:37;4.40;;;0.50;;
52180;SDS011;38158;53.338;6.514;2022-07-23T13:50:30;2.20;;;0.60;;
52180;SDS011;38158;53.338;6.514;2022-07-23T13:52:56;1.48;;;0.47;;
52180;SDS011;38158;53.338;6.514;2022-07-23T13:55:25;1.25;;;0.47;;
52180;SDS011;38158;53.338;6.514;2022-07-23T13:57:50;2.55;;;0.60;;
52180;SDS011;38158;53.338;6.514;2022-07-23T14:00:16;2.53;;;0.73;;
52180;SDS011;38158;53.338;6.514;2022-07-23T14:02:42;1.38;;;0.43;;
52180;SDS011;38158;53.338;6.514;2022-07-23T14:05:09;2.42;;;0.90;;
52180;SDS011;38158;53.338;6.514;2022-07-23T14:07:36;3.28;;;0.50;;
52180;SDS011;38158;53.338;6.514;2022-07-23T14:10:03;1.60;;;0.47;;
52180;SDS011;38158;53.338;6.514;2022-07-23T14:12:30;1.40;;;0.40;;
52180;SDS011;38158;53.338;6.514;2022-07-23T14:14:56;2.92;;;0.70;;
52180;SDS011;38158;53.338;6.514;2022-07-23T14:17:22;2.15;;;0.55;;
52180;SDS011;38158;53.338;6.514;2022-07-23T14:19:48;1.67;;;0.60;;
52180;SDS011;38158;53.338;6.514;2022-07-23T14:22:14;3.97;;;0.67;;
52180;SDS011;38158;53.338;6.514;2022-07-23T14:24:40;1.75;;;0.60;;
52180;SDS011;38158;53.338;6.514;2022-07-23T14:27:06;3.25;;;0.50;;
52180;SDS011;38158;53.338;6.514;2022-07-23T14:29:31;2.28;;;0.40;;
52180;SDS011;38158;53.338;6.514;2022-07-23T14:31:57;1.92;;;0.60;;
52180;SDS011;38158;53.338;6.514;2022-07-23T14:34:24;2.45;;;0.85;;
52180;SDS011;38158;53.338;6.514;2022-07-23T14:36:50;2.78;;;0.60;;
52180;SDS011;38158;53.338;6.514;2022-07-23T14:39:17;1.75;;;0.55;;
52180;SDS011;38158;53.338;6.514;2022-07-23T14:41:43;1.33;;;0.52;;
52180;SDS011;38158;53.338;6.514;2022-07-23T14:44:08;4.05;;;0.80;;
52180;SDS011;38158;53.338;6.514;2022-07-23T14:46:34;2.50;;;0.52;;
52180;SDS011;38158;53.338;6.514;2022-07-23T14:49:00;5.57;;;0.75;;
52180;SDS011;38158;53.338;6.514;2022-07-23T14:51:25;1.60;;;0.60;;
52180;SDS011;38158;53.338;6.514;2022-07-23T14:53:52;3.13;;;0.70;;
52180;SDS011;38158;53.338;6.514;2022-07-23T14:56:18;4.00;;;0.63;;
52180;SDS011;38158;53.338;6.514;2022-07-23T14:58:44;4.03;;;0.90;;
52180;SDS011;38158;53.338;6.514;2022-07-23T15:01:10;3.03;;;0.70;;
52180;SDS011;38158;53.338;6.514;2022-07-23T15:03:35;3.28;;;0.60;;
52180;SDS011;38158;53.338;6.514;2022-07-23T15:06:01;2.17;;;0.60;;
52180;SDS011;38158;53.338;6.514;2022-07-23T15:08:27;1.67;;;0.60;;
52180;SDS011;38158;53.338;6.514;2022-07-23T15:10:52;2.10;;;0.60;;
52180;SDS011;38158;53.338;6.514;2022-07-23T15:13:18;4.20;;;0.60;;
52180;SDS011;38158;53.338;6.514;2022-07-23T15:15:44;2.85;;;0.70;;
52180;SDS011;38158;53.338;6.514;2022-07-23T15:18:10;2.83;;;0.70;;
52180;SDS011;38158;53.338;6.514;2022-07-23T15:20:36;1.73;;;0.70;;
52180;SDS011;38158;53.338;6.514;2022-07-23T15:23:03;2.05;;;0.60;;
52180;SDS011;38158;53.338;6.514;2022-07-23T15:25:29;3.03;;;0.70;;
52180;SDS011;38158;53.338;6.514;2022-07-23T15:27:56;3.95;;;0.70;;
52180;SDS011;38158;53.338;6.514;2022-07-23T15:30:26;2.17;;;0.60;;
52180;SDS011;38158;53.338;6.514;2022-07-23T15:32:52;2.95;;;0.82;;
52180;SDS011;38158;53.338;6.514;2022-07-23T15:35:19;2.97;;;0.70;;
52180;SDS011;38158;53.338;6.514;2022-07-23T15:37:45;2.20;;;0.60;;
52180;SDS011;38158;53.338;6.514;2022-07-23T15:40:11;1.75;;;0.57;;
52180;SDS011;38158;53.338;6.514;2022-07-23T15:42:37;2.28;;;0.50;;
52180;SDS011;38158;53.338;6.514;2022-07-23T15:45:03;0.80;;;0.32;;